sensor_id;sensor_type;location;lat;lon;timestamp;P1;durP1;ratioP1;P2;durP2;ratioP2
23539;SDS011;11947;50.810;4.394;2022-12-18T00:01:04;106.35;;;39.55;;
23539;SDS011;11947;50.810;4.394;2022-12-18T00:03:42;107.63;;;39.67;;
23539;SDS011;11947;50.810;4.394;2022-12-18T00:06:07;107.68;;;39.17;;
23539;SDS011;11947;50.810;4.394;2022-12-18T00:08:34;105.65;;;38.75;;
23539;SDS011;11947;50.810;4.394;2022-12-18T00:11:06;109.32;;;39.03;;
23539;SDS011;11947;50.810;4.394;2022-12-18T00:13:34;108.68;;;36.60;;
23539;SDS011;11947;50.810;4.394;2022-12-18T00:16:03;106.53;;;36.97;;
23539;SDS011;11947;50.810;4.394;2022-12-18T00:18:31;111.85;;;37.85;;
23539;SDS011;11947;50.810;4.394;2022-12-18T00:21:00;108.05;;;39.42;;
23539;SDS011;11947;50.810;4.394;2022-12-18T00:23:34;111.93;;;38.85;;
23539;SDS011;11947;50.810;4.394;2022-12-18T00:26:01;114.80;;;38.65;;
23539;SDS011;11947;50.810;4.394;2022-12-18T00:28:29;106.47;;;37.90;;
23539;SDS011;11947;50.810;4.394;2022-12-18T00:31:01;106.85;;;38.47;;
23539;SDS011;11947;50.810;4.394;2022-12-18T00:33:28;106.07;;;38.30;;
23539;SDS011;11947;50.810;4.394;2022-12-18T00:35:59;115.78;;;38.15;;
23539;SDS011;11947;50.810;4.394;2022-12-18T00:38:29;103.18;;;37.50;;
23539;SDS011;11947;50.810;4.394;2022-12-18T00:40:55;111.05;;;38.05;;
23539;SDS011;11947;50.810;4.394;2022-12-18T00:43:20;93.35;;;34.25;;
23539;SDS011;11947;50.810;4.394;2022-12-18T00:45:46;98.05;;;33.33;;
23539;SDS011;11947;50.810;4.394;2022-12-18T00:48:17;98.35;;;32.85;;
23539;SDS011;11947;50.810;4.394;2022-12-18T00:50:43;91.68;;;32.00;;
23539;SDS011;11947;50.810;4.394;2022-12-18T00:53:09;87.03;;;31.02;;
23539;SDS011;11947;50.810;4.394;2022-12-18T00:55:34;77.70;;;28.85;;
23539;SDS011;11947;50.810;4.394;2022-12-18T00:58:02;71.85;;;28.40;;
23539;SDS011;11947;50.810;4.394;2022-12-18T01:00:27;76.50;;;28.48;;
23539;SDS011;11947;50.810;4.394;2022-12-18T01:02:53;67.13;;;26.60;;
23539;SDS011;11947;50.810;4.394;2022-12-18T01:05:19;74.70;;;27.35;;
23539;SDS011;11947;50.810;4.394;2022-12-18T01:07:47;65.93;;;26.13;;
23539;SDS011;11947;50.810;4.394;2022-12-18T01:10:14;68.38;;;25.70;;
23539;SDS011;11947;50.810;4.394;2022-12-18T01:12:40;69.18;;;25.92;;
23539;SDS011;11947;50.810;4.394;2022-12-18T01:15:06;65.72;;;25.50;;
23539;SDS011;11947;50.810;4.394;2022-12-18T01:17:35;65.68;;;24.90;;
23539;SDS011;11947;50.810;4.394;2022-12-18T01:20:01;69.97;;;26.08;;
23539;SDS011;11947;50.810;4.394;2022-12-18T01:22:27;59.95;;;23.38;;
23539;SDS011;11947;50.810;4.394;2022-12-18T01:24:53;63.63;;;23.67;;
23539;SDS011;11947;50.810;4.394;2022-12-18T01:27:18;61.00;;;23.65;;
23539;SDS011;11947;50.810;4.394;2022-12-18T01:29:44;63.75;;;24.23;;
23539;SDS011;11947;50.810;4.394;2022-12-18T01:32:10;57.85;;;22.70;;
23539;SDS011;11947;50.810;4.394;2022-12-18T01:34:36;60.35;;;21.60;;
23539;SDS011;11947;50.810;4.394;2022-12-18T01:37:05;57.08;;;21.95;;
23539;SDS011;11947;50.810;4.394;2022-12-18T01:39:31;58.13;;;22.25;;
23539;SDS011;11947;50.810;4.394;2022-12-18T01:41:58;58.60;;;22.00;;
23539;SDS011;11947;50.810;4.394;2022-12-18T01:50:27;52.30;;;19.45;;
23539;SDS011;11947;50.810;4.394;2022-12-18T01:53:02;50.83;;;19.95;;
23539;SDS011;11947;50.810;4.394;2022-12-18T01:58:01;59.33;;;20.00;;
23539;SDS011;11947;50.810;4.394;2022-12-18T02:00:30;57.40;;;21.02;;
23539;SDS011;11947;50.810;4.394;2022-12-18T02:02:55;54.30;;;20.80;;
23539;SDS011;11947;50.810;4.394;2022-12-18T02:05:44;53.50;;;20.67;;
23539;SDS011;11947;50.810;4.394;2022-12-18T02:08:22;55.28;;;21.75;;
23539;SDS011;11947;50.810;4.394;2022-12-18T02:11:12;55.05;;;21.58;;
23539;SDS011;11947;50.810;4.394;2022-12-18T02:19:08;60.22;;;21.80;;
23539;SDS011;11947;50.810;4.394;2022-12-18T02:21:58;57.28;;;21.85;;
23539;SDS011;11947;50.810;4.394;2022-12-18T02:25:05;56.92;;;22.33;;
23539;SDS011;11947;50.810;4.394;2022-12-18T02:30:06;64.53;;;23.10;;
23539;SDS011;11947;50.810;4.394;2022-12-18T02:32:35;58.30;;;21.50;;
23539;SDS011;11947;50.810;4.394;2022-12-18T02:35:09;58.33;;;22.80;;
23539;SDS011;11947;50.810;4.394;2022-12-18T02:37:42;61.97;;;21.80;;
23539;SDS011;11947;50.810;4.394;2022-12-18T02:40:10;58.55;;;22.35;;
23539;SDS011;11947;50.810;4.394;2022-12-18T02:42:37;63.70;;;21.92;;
23539;SDS011;11947;50.810;4.394;2022-12-18T02:45:03;64.00;;;22.23;;
23539;SDS011;11947;50.810;4.394;2022-12-18T02:47:31;63.28;;;22.83;;
23539;SDS011;11947;50.810;4.394;2022-12-18T02:50:18;57.35;;;21.33;;
23539;SDS011;11947;50.810;4.394;2022-12-18T02:58:16;55.33;;;21.52;;
23539;SDS011;11947;50.810;4.394;2022-12-18T03:00:52;60.85;;;22.70;;
23539;SDS011;11947;50.810;4.394;2022-12-18T03:03:25;58.78;;;22.52;;
23539;SDS011;11947;50.810;4.394;2022-12-18T03:06:08;59.78;;;22.50;;
23539;SDS011;11947;50.810;4.394;2022-12-18T03:08:42;60.08;;;22.23;;
23539;SDS011;11947;50.810;4.394;2022-12-18T03:11:12;60.15;;;21.80;;
23539;SDS011;11947;50.810;4.394;2022-12-18T03:13:40;58.42;;;21.27;;
23539;SDS011;11947;50.810;4.394;2022-12-18T03:16:14;61.13;;;22.45;;
23539;SDS011;11947;50.810;4.394;2022-12-18T03:19:03;59.13;;;21.67;;
23539;SDS011;11947;50.810;4.394;2022-12-18T03:21:39;58.78;;;21.65;;
23539;SDS011;11947;50.810;4.394;2022-12-18T03:24:11;57.03;;;21.73;;
23539;SDS011;11947;50.810;4.394;2022-12-18T03:26:40;58.40;;;21.48;;
23539;SDS011;11947;50.810;4.394;2022-12-18T03:29:17;56.35;;;21.02;;
23539;SDS011;11947;50.810;4.394;2022-12-18T03:34:32;58.03;;;21.00;;
23539;SDS011;11947;50.810;4.394;2022-12-18T03:37:00;53.40;;;21.13;;
23539;SDS011;11947;50.810;4.394;2022-12-18T03:39:29;58.90;;;21.58;;
23539;SDS011;11947;50.810;4.394;2022-12-18T03:41:58;59.53;;;21.23;;
23539;SDS011;11947;50.810;4.394;2022-12-18T03:44:44;53.78;;;21.73;;
23539;SDS011;11947;50.810;4.394;2022-12-18T03:47:33;61.70;;;21.63;;
23539;SDS011;11947;50.810;4.394;2022-12-18T03:50:16;60.95;;;21.80;;
23539;SDS011;11947;50.810;4.394;2022-12-18T03:53:04;61.33;;;21.17;;
23539;SDS011;11947;50.810;4.394;2022-12-18T03:55:40;56.45;;;20.63;;
23539;SDS011;11947;50.810;4.394;2022-12-18T03:58:08;60.85;;;20.70;;
23539;SDS011;11947;50.810;4.394;2022-12-18T04:00:42;59.70;;;20.85;;
23539;SDS011;11947;50.810;4.394;2022-12-18T04:03:08;59.53;;;21.30;;
23539;SDS011;11947;50.810;4.394;2022-12-18T04:05:38;55.38;;;19.88;;
23539;SDS011;11947;50.810;4.394;2022-12-18T04:08:07;52.92;;;20.02;;
23539;SDS011;11947;50.810;4.394;2022-12-18T04:10:32;55.33;;;20.73;;
23539;SDS011;11947;50.810;4.394;2022-12-18T04:13:03;56.20;;;21.67;;
23539;SDS011;11947;50.810;4.394;2022-12-18T04:15:29;54.50;;;19.20;;
23539;SDS011;11947;50.810;4.394;2022-12-18T04:18:02;53.22;;;18.75;;
23539;SDS011;11947;50.810;4.394;2022-12-18T04:20:28;53.30;;;19.63;;
23539;SDS011;11947;50.810;4.394;2022-12-18T04:22:55;52.75;;;19.30;;
23539;SDS011;11947;50.810;4.394;2022-12-18T04:25:20;54.25;;;21.00;;
23539;SDS011;11947;50.810;4.394;2022-12-18T04:27:46;60.83;;;19.58;;
23539;SDS011;11947;50.810;4.394;2022-12-18T04:30:12;53.95;;;19.50;;
23539;SDS011;11947;50.810;4.394;2022-12-18T04:35:13;51.22;;;19.10;;
23539;SDS011;11947;50.810;4.394;2022-12-18T04:37:39;52.22;;;19.25;;
23539;SDS011;11947;50.810;4.394;2022-12-18T04:40:04;47.80;;;19.05;;
23539;SDS011;11947;50.810;4.394;2022-12-18T04:45:08;52.83;;;18.30;;
23539;SDS011;11947;50.810;4.394;2022-12-18T04:47:34;51.03;;;18.63;;
23539;SDS011;11947;50.810;4.394;2022-12-18T04:50:03;62.65;;;19.15;;
23539;SDS011;11947;50.810;4.394;2022-12-18T04:52:29;50.30;;;19.60;;
23539;SDS011;11947;50.810;4.394;2022-12-18T04:54:55;50.20;;;18.27;;
23539;SDS011;11947;50.810;4.394;2022-12-18T04:57:21;51.80;;;18.73;;
23539;SDS011;11947;50.810;4.394;2022-12-18T04:59:49;47.58;;;18.63;;
23539;SDS011;11947;50.810;4.394;2022-12-18T05:02:14;52.72;;;18.67;;
23539;SDS011;11947;50.810;4.394;2022-12-18T05:04:49;53.55;;;18.92;;
23539;SDS011;11947;50.810;4.394;2022-12-18T05:07:52;48.28;;;17.70;;
23539;SDS011;11947;50.810;4.394;2022-12-18T05:10:20;52.17;;;19.65;;
23539;SDS011;11947;50.810;4.394;2022-12-18T05:12:47;48.13;;;17.58;;
23539;SDS011;11947;50.810;4.394;2022-12-18T05:15:31;47.50;;;17.90;;
23539;SDS011;11947;50.810;4.394;2022-12-18T05:20:26;51.78;;;17.40;;
23539;SDS011;11947;50.810;4.394;2022-12-18T05:22:55;51.65;;;18.50;;
23539;SDS011;11947;50.810;4.394;2022-12-18T05:25:21;49.00;;;18.08;;
23539;SDS011;11947;50.810;4.394;2022-12-18T05:27:49;48.28;;;18.48;;
23539;SDS011;11947;50.810;4.394;2022-12-18T05:30:15;48.53;;;17.83;;
23539;SDS011;11947;50.810;4.394;2022-12-18T05:32:42;50.60;;;18.35;;
23539;SDS011;11947;50.810;4.394;2022-12-18T05:35:09;43.13;;;17.83;;
23539;SDS011;11947;50.810;4.394;2022-12-18T05:37:37;47.83;;;18.17;;
23539;SDS011;11947;50.810;4.394;2022-12-18T05:40:05;48.00;;;17.83;;
23539;SDS011;11947;50.810;4.394;2022-12-18T05:42:31;48.22;;;17.35;;
23539;SDS011;11947;50.810;4.394;2022-12-18T05:44:57;45.90;;;17.17;;
23539;SDS011;11947;50.810;4.394;2022-12-18T05:47:23;53.88;;;18.98;;
23539;SDS011;11947;50.810;4.394;2022-12-18T05:49:48;49.35;;;17.60;;
23539;SDS011;11947;50.810;4.394;2022-12-18T05:52:14;50.85;;;18.02;;
23539;SDS011;11947;50.810;4.394;2022-12-18T05:59:53;42.28;;;16.05;;
23539;SDS011;11947;50.810;4.394;2022-12-18T06:02:19;44.22;;;16.00;;
23539;SDS011;11947;50.810;4.394;2022-12-18T06:05:19;37.55;;;14.02;;
23539;SDS011;11947;50.810;4.394;2022-12-18T06:07:49;43.80;;;16.60;;
23539;SDS011;11947;50.810;4.394;2022-12-18T06:10:15;38.40;;;14.20;;
23539;SDS011;11947;50.810;4.394;2022-12-18T06:12:41;46.05;;;15.63;;
23539;SDS011;11947;50.810;4.394;2022-12-18T06:15:07;48.50;;;16.10;;
23539;SDS011;11947;50.810;4.394;2022-12-18T06:17:36;40.85;;;14.82;;
23539;SDS011;11947;50.810;4.394;2022-12-18T06:20:02;36.78;;;14.77;;
23539;SDS011;11947;50.810;4.394;2022-12-18T06:22:30;42.58;;;13.77;;
23539;SDS011;11947;50.810;4.394;2022-12-18T06:24:56;40.35;;;14.93;;
23539;SDS011;11947;50.810;4.394;2022-12-18T06:27:22;37.50;;;13.93;;
23539;SDS011;11947;50.810;4.394;2022-12-18T06:29:48;40.60;;;13.52;;
23539;SDS011;11947;50.810;4.394;2022-12-18T06:32:14;36.35;;;13.25;;
23539;SDS011;11947;50.810;4.394;2022-12-18T06:34:42;34.60;;;13.63;;
23539;SDS011;11947;50.810;4.394;2022-12-18T06:37:28;34.25;;;13.85;;
23539;SDS011;11947;50.810;4.394;2022-12-18T06:39:58;36.70;;;13.77;;
23539;SDS011;11947;50.810;4.394;2022-12-18T06:42:26;33.88;;;13.45;;
23539;SDS011;11947;50.810;4.394;2022-12-18T06:44:51;33.58;;;12.65;;
23539;SDS011;11947;50.810;4.394;2022-12-18T06:47:17;42.58;;;12.85;;
23539;SDS011;11947;50.810;4.394;2022-12-18T06:49:43;34.53;;;11.93;;
23539;SDS011;11947;50.810;4.394;2022-12-18T06:52:09;31.02;;;11.27;;
23539;SDS011;11947;50.810;4.394;2022-12-18T06:54:34;35.80;;;13.32;;
23539;SDS011;11947;50.810;4.394;2022-12-18T06:57:00;31.52;;;12.25;;
23539;SDS011;11947;50.810;4.394;2022-12-18T06:59:26;27.58;;;11.10;;
23539;SDS011;11947;50.810;4.394;2022-12-18T07:01:51;32.85;;;12.32;;
23539;SDS011;11947;50.810;4.394;2022-12-18T07:04:17;34.72;;;12.32;;
23539;SDS011;11947;50.810;4.394;2022-12-18T07:06:43;30.10;;;10.95;;
23539;SDS011;11947;50.810;4.394;2022-12-18T07:09:11;35.92;;;12.27;;
23539;SDS011;11947;50.810;4.394;2022-12-18T07:11:37;31.13;;;10.50;;
23539;SDS011;11947;50.810;4.394;2022-12-18T07:14:02;28.70;;;11.35;;
23539;SDS011;11947;50.810;4.394;2022-12-18T07:16:28;29.52;;;10.82;;
23539;SDS011;11947;50.810;4.394;2022-12-18T07:18:54;30.88;;;11.48;;
23539;SDS011;11947;50.810;4.394;2022-12-18T07:21:21;28.58;;;10.77;;
23539;SDS011;11947;50.810;4.394;2022-12-18T07:23:48;24.92;;;9.93;;
23539;SDS011;11947;50.810;4.394;2022-12-18T07:28:54;27.13;;;10.32;;
23539;SDS011;11947;50.810;4.394;2022-12-18T07:34:00;27.73;;;10.55;;
23539;SDS011;11947;50.810;4.394;2022-12-18T07:36:32;32.95;;;10.82;;
23539;SDS011;11947;50.810;4.394;2022-12-18T07:39:00;29.33;;;10.45;;
23539;SDS011;11947;50.810;4.394;2022-12-18T07:41:26;26.63;;;10.57;;
23539;SDS011;11947;50.810;4.394;2022-12-18T07:43:53;27.42;;;10.40;;
23539;SDS011;11947;50.810;4.394;2022-12-18T07:46:18;31.10;;;10.52;;
23539;SDS011;11947;50.810;4.394;2022-12-18T07:48:47;25.15;;;10.50;;
23539;SDS011;11947;50.810;4.394;2022-12-18T07:51:12;24.83;;;11.00;;
23539;SDS011;11947;50.810;4.394;2022-12-18T07:53:41;29.88;;;10.23;;
23539;SDS011;11947;50.810;4.394;2022-12-18T07:56:08;27.17;;;10.98;;
23539;SDS011;11947;50.810;4.394;2022-12-18T07:58:35;28.60;;;9.88;;
23539;SDS011;11947;50.810;4.394;2022-12-18T08:01:05;22.45;;;9.48;;
23539;SDS011;11947;50.810;4.394;2022-12-18T08:03:33;23.33;;;9.25;;
23539;SDS011;11947;50.810;4.394;2022-12-18T08:06:02;24.98;;;8.82;;
23539;SDS011;11947;50.810;4.394;2022-12-18T08:08:36;21.55;;;8.45;;
23539;SDS011;11947;50.810;4.394;2022-12-18T08:11:02;20.20;;;8.90;;
23539;SDS011;11947;50.810;4.394;2022-12-18T08:13:28;26.85;;;10.48;;
23539;SDS011;11947;50.810;4.394;2022-12-18T08:15:57;24.65;;;9.43;;
23539;SDS011;11947;50.810;4.394;2022-12-18T08:18:24;24.25;;;10.20;;
23539;SDS011;11947;50.810;4.394;2022-12-18T08:20:50;26.55;;;9.93;;
23539;SDS011;11947;50.810;4.394;2022-12-18T08:23:16;21.20;;;9.20;;
23539;SDS011;11947;50.810;4.394;2022-12-18T08:25:42;22.20;;;9.32;;
23539;SDS011;11947;50.810;4.394;2022-12-18T08:28:07;26.90;;;10.38;;
23539;SDS011;11947;50.810;4.394;2022-12-18T08:30:33;31.50;;;12.10;;
23539;SDS011;11947;50.810;4.394;2022-12-18T08:33:00;44.70;;;17.23;;
23539;SDS011;11947;50.810;4.394;2022-12-18T08:35:25;30.98;;;12.63;;
23539;SDS011;11947;50.810;4.394;2022-12-18T08:37:51;29.85;;;11.38;;
23539;SDS011;11947;50.810;4.394;2022-12-18T08:40:17;29.13;;;10.70;;
23539;SDS011;11947;50.810;4.394;2022-12-18T08:42:43;40.40;;;16.42;;
23539;SDS011;11947;50.810;4.394;2022-12-18T08:45:27;43.60;;;18.90;;
23539;SDS011;11947;50.810;4.394;2022-12-18T08:47:53;41.65;;;11.50;;
23539;SDS011;11947;50.810;4.394;2022-12-18T08:50:19;24.45;;;10.27;;
23539;SDS011;11947;50.810;4.394;2022-12-18T08:52:45;25.23;;;10.63;;
23539;SDS011;11947;50.810;4.394;2022-12-18T08:55:10;30.25;;;12.50;;
23539;SDS011;11947;50.810;4.394;2022-12-18T08:57:39;46.65;;;21.25;;
23539;SDS011;11947;50.810;4.394;2022-12-18T09:03:05;32.08;;;13.57;;
23539;SDS011;11947;50.810;4.394;2022-12-18T09:05:50;30.33;;;11.70;;
23539;SDS011;11947;50.810;4.394;2022-12-18T09:08:18;30.47;;;11.33;;
23539;SDS011;11947;50.810;4.394;2022-12-18T09:10:44;27.15;;;10.52;;
23539;SDS011;11947;50.810;4.394;2022-12-18T09:13:11;27.10;;;12.25;;
23539;SDS011;11947;50.810;4.394;2022-12-18T09:15:45;30.02;;;11.70;;
23539;SDS011;11947;50.810;4.394;2022-12-18T09:18:12;35.55;;;15.68;;
23539;SDS011;11947;50.810;4.394;2022-12-18T09:20:39;34.53;;;13.00;;
23539;SDS011;11947;50.810;4.394;2022-12-18T09:23:08;28.20;;;11.55;;
23539;SDS011;11947;50.810;4.394;2022-12-18T09:25:40;28.42;;;11.63;;
23539;SDS011;11947;50.810;4.394;2022-12-18T09:28:12;31.70;;;12.10;;
23539;SDS011;11947;50.810;4.394;2022-12-18T09:30:40;27.50;;;12.48;;
23539;SDS011;11947;50.810;4.394;2022-12-18T09:33:06;32.92;;;12.40;;
23539;SDS011;11947;50.810;4.394;2022-12-18T09:35:32;29.80;;;11.63;;
23539;SDS011;11947;50.810;4.394;2022-12-18T09:38:13;35.10;;;13.07;;
23539;SDS011;11947;50.810;4.394;2022-12-18T09:40:42;34.05;;;11.40;;
23539;SDS011;11947;50.810;4.394;2022-12-18T09:46:15;37.72;;;14.18;;
23539;SDS011;11947;50.810;4.394;2022-12-18T09:48:54;37.10;;;15.75;;
23539;SDS011;11947;50.810;4.394;2022-12-18T09:51:29;33.75;;;13.38;;
23539;SDS011;11947;50.810;4.394;2022-12-18T09:54:04;35.17;;;14.95;;
23539;SDS011;11947;50.810;4.394;2022-12-18T10:00:37;36.88;;;14.55;;
23539;SDS011;11947;50.810;4.394;2022-12-18T10:03:08;37.33;;;15.93;;
23539;SDS011;11947;50.810;4.394;2022-12-18T10:10:49;32.03;;;14.07;;
23539;SDS011;11947;50.810;4.394;2022-12-18T10:16:14;30.80;;;13.70;;
23539;SDS011;11947;50.810;4.394;2022-12-18T10:24:41;32.95;;;14.75;;
23539;SDS011;11947;50.810;4.394;2022-12-18T10:27:24;32.75;;;15.55;;
23539;SDS011;11947;50.810;4.394;2022-12-18T10:29:52;36.70;;;15.63;;
23539;SDS011;11947;50.810;4.394;2022-12-18T10:32:23;36.08;;;15.82;;
23539;SDS011;11947;50.810;4.394;2022-12-18T10:34:53;39.40;;;16.48;;
23539;SDS011;11947;50.810;4.394;2022-12-18T10:37:22;34.80;;;15.48;;
23539;SDS011;11947;50.810;4.394;2022-12-18T10:42:36;37.33;;;17.08;;
23539;SDS011;11947;50.810;4.394;2022-12-18T10:45:08;37.42;;;15.77;;
23539;SDS011;11947;50.810;4.394;2022-12-18T10:47:36;35.67;;;15.98;;
23539;SDS011;11947;50.810;4.394;2022-12-18T10:50:18;39.47;;;16.67;;
23539;SDS011;11947;50.810;4.394;2022-12-18T10:52:44;36.72;;;16.20;;
23539;SDS011;11947;50.810;4.394;2022-12-18T10:55:20;154.85;;;77.00;;
23539;SDS011;11947;50.810;4.394;2022-12-18T10:57:46;36.70;;;16.85;;
23539;SDS011;11947;50.810;4.394;2022-12-18T11:00:20;33.88;;;16.60;;
23539;SDS011;11947;50.810;4.394;2022-12-18T11:02:52;37.75;;;17.40;;
23539;SDS011;11947;50.810;4.394;2022-12-18T11:07:58;41.58;;;18.55;;
23539;SDS011;11947;50.810;4.394;2022-12-18T11:10:35;36.92;;;16.90;;
23539;SDS011;11947;50.810;4.394;2022-12-18T11:13:18;36.10;;;15.85;;
23539;SDS011;11947;50.810;4.394;2022-12-18T11:15:47;37.15;;;15.82;;
23539;SDS011;11947;50.810;4.394;2022-12-18T11:18:17;37.15;;;17.08;;
23539;SDS011;11947;50.810;4.394;2022-12-18T11:20:54;36.65;;;17.15;;
23539;SDS011;11947;50.810;4.394;2022-12-18T11:23:22;35.72;;;15.95;;
23539;SDS011;11947;50.810;4.394;2022-12-18T11:25:55;37.90;;;16.73;;
23539;SDS011;11947;50.810;4.394;2022-12-18T11:31:17;36.92;;;15.43;;
23539;SDS011;11947;50.810;4.394;2022-12-18T11:36:39;32.03;;;15.18;;
23539;SDS011;11947;50.810;4.394;2022-12-18T11:39:15;32.25;;;13.10;;
23539;SDS011;11947;50.810;4.394;2022-12-18T11:41:56;34.90;;;14.55;;
23539;SDS011;11947;50.810;4.394;2022-12-18T11:44:38;29.30;;;13.18;;
23539;SDS011;11947;50.810;4.394;2022-12-18T11:50:26;33.28;;;13.90;;
23539;SDS011;11947;50.810;4.394;2022-12-18T11:52:58;35.38;;;16.60;;
23539;SDS011;11947;50.810;4.394;2022-12-18T11:55:30;34.63;;;15.15;;
23539;SDS011;11947;50.810;4.394;2022-12-18T12:01:46;32.70;;;14.23;;
23539;SDS011;11947;50.810;4.394;2022-12-18T12:09:53;33.73;;;14.03;;
23539;SDS011;11947;50.810;4.394;2022-12-18T12:12:39;33.30;;;14.90;;
23539;SDS011;11947;50.810;4.394;2022-12-18T12:20:47;38.33;;;14.90;;
23539;SDS011;11947;50.810;4.394;2022-12-18T12:29:01;34.00;;;14.63;;
23539;SDS011;11947;50.810;4.394;2022-12-18T12:34:45;37.08;;;16.25;;
23539;SDS011;11947;50.810;4.394;2022-12-18T12:37:38;40.10;;;15.88;;
23539;SDS011;11947;50.810;4.394;2022-12-18T12:40:10;43.95;;;18.45;;
23539;SDS011;11947;50.810;4.394;2022-12-18T12:42:42;93.72;;;34.00;;
23539;SDS011;11947;50.810;4.394;2022-12-18T12:45:36;97.10;;;36.40;;
23539;SDS011;11947;50.810;4.394;2022-12-18T12:48:26;70.97;;;27.70;;
23539;SDS011;11947;50.810;4.394;2022-12-18T12:53:50;39.22;;;17.58;;
23539;SDS011;11947;50.810;4.394;2022-12-18T12:56:25;40.78;;;17.88;;
23539;SDS011;11947;50.810;4.394;2022-12-18T12:59:04;40.92;;;17.08;;
23539;SDS011;11947;50.810;4.394;2022-12-18T13:07:15;63.75;;;24.88;;
23539;SDS011;11947;50.810;4.394;2022-12-18T13:15:30;43.13;;;18.15;;
23539;SDS011;11947;50.810;4.394;2022-12-18T13:28:16;60.67;;;25.15;;
23539;SDS011;11947;50.810;4.394;2022-12-18T13:30:50;47.78;;;20.73;;
23539;SDS011;11947;50.810;4.394;2022-12-18T13:44:10;79.32;;;32.60;;
23539;SDS011;11947;50.810;4.394;2022-12-18T13:46:44;46.30;;;20.63;;
23539;SDS011;11947;50.810;4.394;2022-12-18T13:51:50;111.65;;;52.15;;
23539;SDS011;11947;50.810;4.394;2022-12-18T13:59:25;55.75;;;22.58;;
23539;SDS011;11947;50.810;4.394;2022-12-18T14:02:16;51.97;;;21.83;;
23539;SDS011;11947;50.810;4.394;2022-12-18T14:04:46;62.15;;;28.48;;
23539;SDS011;11947;50.810;4.394;2022-12-18T14:09:53;45.35;;;17.13;;
23539;SDS011;11947;50.810;4.394;2022-12-18T14:12:22;52.78;;;22.65;;
23539;SDS011;11947;50.810;4.394;2022-12-18T14:18:02;52.58;;;18.85;;
23539;SDS011;11947;50.810;4.394;2022-12-18T14:20:44;55.60;;;22.92;;
23539;SDS011;11947;50.810;4.394;2022-12-18T14:23:31;55.63;;;23.02;;
23539;SDS011;11947;50.810;4.394;2022-12-18T14:28:52;52.58;;;21.85;;
23539;SDS011;11947;50.810;4.394;2022-12-18T14:31:22;58.15;;;24.20;;
23539;SDS011;11947;50.810;4.394;2022-12-18T14:33:54;53.45;;;22.08;;
23539;SDS011;11947;50.810;4.394;2022-12-18T14:36:26;55.25;;;23.02;;
23539;SDS011;11947;50.810;4.394;2022-12-18T14:38:54;62.30;;;24.83;;
23539;SDS011;11947;50.810;4.394;2022-12-18T14:41:21;59.47;;;24.95;;
23539;SDS011;11947;50.810;4.394;2022-12-18T14:43:48;55.85;;;22.70;;
23539;SDS011;11947;50.810;4.394;2022-12-18T14:46:35;61.08;;;22.20;;
23539;SDS011;11947;50.810;4.394;2022-12-18T14:49:14;54.58;;;22.40;;
23539;SDS011;11947;50.810;4.394;2022-12-18T14:52:14;72.85;;;27.92;;
23539;SDS011;11947;50.810;4.394;2022-12-18T14:54:49;55.55;;;23.58;;
23539;SDS011;11947;50.810;4.394;2022-12-18T14:57:23;60.20;;;23.85;;
23539;SDS011;11947;50.810;4.394;2022-12-18T15:00:04;53.35;;;20.80;;
23539;SDS011;11947;50.810;4.394;2022-12-18T15:02:31;54.28;;;21.60;;
23539;SDS011;11947;50.810;4.394;2022-12-18T15:05:01;53.78;;;22.27;;
23539;SDS011;11947;50.810;4.394;2022-12-18T15:07:41;80.68;;;33.72;;
23539;SDS011;11947;50.810;4.394;2022-12-18T15:10:27;80.47;;;35.15;;
23539;SDS011;11947;50.810;4.394;2022-12-18T15:17:59;59.85;;;23.77;;
23539;SDS011;11947;50.810;4.394;2022-12-18T15:20:30;66.05;;;26.83;;
23539;SDS011;11947;50.810;4.394;2022-12-18T15:22:58;67.00;;;27.45;;
23539;SDS011;11947;50.810;4.394;2022-12-18T15:28:02;57.10;;;23.30;;
23539;SDS011;11947;50.810;4.394;2022-12-18T15:30:57;67.93;;;26.33;;
23539;SDS011;11947;50.810;4.394;2022-12-18T15:33:25;60.45;;;24.88;;
23539;SDS011;11947;50.810;4.394;2022-12-18T15:36:02;62.00;;;23.80;;
23539;SDS011;11947;50.810;4.394;2022-12-18T15:38:32;61.40;;;24.90;;
23539;SDS011;11947;50.810;4.394;2022-12-18T15:40:58;58.60;;;22.42;;
23539;SDS011;11947;50.810;4.394;2022-12-18T15:43:27;57.03;;;22.67;;
23539;SDS011;11947;50.810;4.394;2022-12-18T15:45:59;47.10;;;18.33;;
23539;SDS011;11947;50.810;4.394;2022-12-18T15:48:33;56.28;;;21.70;;
23539;SDS011;11947;50.810;4.394;2022-12-18T15:50:59;52.78;;;21.15;;
23539;SDS011;11947;50.810;4.394;2022-12-18T15:53:27;60.15;;;23.20;;
23539;SDS011;11947;50.810;4.394;2022-12-18T15:55:56;72.68;;;29.00;;
23539;SDS011;11947;50.810;4.394;2022-12-18T15:58:41;57.47;;;22.90;;
23539;SDS011;11947;50.810;4.394;2022-12-18T16:01:07;57.90;;;23.48;;
23539;SDS011;11947;50.810;4.394;2022-12-18T16:06:25;59.97;;;22.30;;
23539;SDS011;11947;50.810;4.394;2022-12-18T16:08:51;72.25;;;31.75;;
23539;SDS011;11947;50.810;4.394;2022-12-18T16:11:24;78.57;;;33.70;;
23539;SDS011;11947;50.810;4.394;2022-12-18T16:16:47;77.28;;;32.28;;
23539;SDS011;11947;50.810;4.394;2022-12-18T16:19:14;72.07;;;28.45;;
23539;SDS011;11947;50.810;4.394;2022-12-18T16:21:41;86.43;;;37.13;;
23539;SDS011;11947;50.810;4.394;2022-12-18T16:24:13;74.93;;;27.27;;
23539;SDS011;11947;50.810;4.394;2022-12-18T16:26:41;51.17;;;21.15;;
23539;SDS011;11947;50.810;4.394;2022-12-18T16:29:07;58.20;;;22.73;;
23539;SDS011;11947;50.810;4.394;2022-12-18T16:31:33;67.93;;;28.00;;
23539;SDS011;11947;50.810;4.394;2022-12-18T16:34:12;50.70;;;19.38;;
23539;SDS011;11947;50.810;4.394;2022-12-18T16:36:40;59.03;;;22.42;;
23539;SDS011;11947;50.810;4.394;2022-12-18T16:39:06;67.80;;;25.63;;
23539;SDS011;11947;50.810;4.394;2022-12-18T16:41:32;113.53;;;48.50;;
23539;SDS011;11947;50.810;4.394;2022-12-18T16:43:58;61.25;;;26.10;;
23539;SDS011;11947;50.810;4.394;2022-12-18T16:46:24;44.88;;;15.70;;
23539;SDS011;11947;50.810;4.394;2022-12-18T16:48:50;124.30;;;59.88;;
23539;SDS011;11947;50.810;4.394;2022-12-18T16:51:16;48.03;;;19.17;;
23539;SDS011;11947;50.810;4.394;2022-12-18T16:53:41;48.63;;;17.95;;
23539;SDS011;11947;50.810;4.394;2022-12-18T16:56:07;70.57;;;30.80;;
23539;SDS011;11947;50.810;4.394;2022-12-18T16:58:33;56.45;;;22.17;;
23539;SDS011;11947;50.810;4.394;2022-12-18T17:00:59;64.63;;;27.40;;
23539;SDS011;11947;50.810;4.394;2022-12-18T17:03:25;74.07;;;34.13;;
23539;SDS011;11947;50.810;4.394;2022-12-18T17:05:51;79.93;;;34.47;;
23539;SDS011;11947;50.810;4.394;2022-12-18T17:08:16;55.78;;;23.77;;
23539;SDS011;11947;50.810;4.394;2022-12-18T17:10:42;71.22;;;31.60;;
23539;SDS011;11947;50.810;4.394;2022-12-18T17:13:10;62.58;;;27.30;;
23539;SDS011;11947;50.810;4.394;2022-12-18T17:15:37;56.65;;;24.83;;
23539;SDS011;11947;50.810;4.394;2022-12-18T17:18:05;76.90;;;36.05;;
23539;SDS011;11947;50.810;4.394;2022-12-18T17:20:32;82.13;;;36.58;;
23539;SDS011;11947;50.810;4.394;2022-12-18T17:22:57;71.32;;;31.10;;
23539;SDS011;11947;50.810;4.394;2022-12-18T17:25:26;101.20;;;51.05;;
23539;SDS011;11947;50.810;4.394;2022-12-18T17:27:51;61.95;;;27.15;;
23539;SDS011;11947;50.810;4.394;2022-12-18T17:30:26;60.55;;;23.30;;